createdAt,value
2023-12-04T00:01:20.201Z,101841.22
2023-12-04T00:03:48.387Z,101832.31
2023-12-04T00:06:16.728Z,101844.28
2023-12-04T00:08:44.906Z,101834.19
2023-12-04T00:11:13.220Z,101838.09
2023-12-04T00:13:41.238Z,101841.72
2023-12-04T00:16:11.541Z,101837.44
2023-12-04T00:18:39.722Z,101833.38
2023-12-04T00:21:08.470Z,101824.72
2023-12-04T00:23:36.570Z,101822.47
2023-12-04T00:26:04.824Z,101817.66
2023-12-04T00:28:33.279Z,101802.28
2023-12-04T00:31:01.342Z,101819.34
2023-12-04T00:33:30.903Z,101810.97
2023-12-04T00:35:59.767Z,101823.59
2023-12-04T00:38:27.777Z,101806.56
2023-12-04T00:40:55.826Z,101822.53
2023-12-04T00:43:23.843Z,101814.25
2023-12-04T00:45:51.916Z,101804.22
2023-12-04T00:48:20.101Z,101804.66
2023-12-04T00:50:49.593Z,101804.59
2023-12-04T00:53:17.654Z,101807.97
2023-12-04T00:55:45.717Z,101793.84
2023-12-04T00:58:14.039Z,101800.91
2023-12-04T01:00:42.344Z,101796.69
2023-12-04T01:03:10.450Z,101791.69
2023-12-04T01:05:38.582Z,101785.22
2023-12-04T01:08:08.019Z,101785.72
2023-12-04T01:10:36.158Z,101777.50
2023-12-04T01:13:04.246Z,101787.91
2023-12-04T01:15:32.386Z,101793.25
2023-12-04T01:18:01.778Z,101786.59
2023-12-04T01:20:30.676Z,101779.00
2023-12-04T01:22:59.322Z,101773.63
2023-12-04T01:25:28.748Z,101784.63
2023-12-04T01:27:56.794Z,101786.50
2023-12-04T01:30:24.839Z,101779.38
2023-12-04T01:32:53.756Z,101778.31
2023-12-04T01:35:21.821Z,101764.72
2023-12-04T01:37:49.828Z,101771.53
2023-12-04T01:40:18.060Z,101762.09
2023-12-04T01:42:47.749Z,101755.19
2023-12-04T01:45:15.868Z,101745.28
2023-12-04T01:47:44.914Z,101740.06
2023-12-04T01:50:14.895Z,101742.50
2023-12-04T01:52:42.954Z,101750.03
2023-12-04T01:55:11.934Z,101745.94
2023-12-04T01:57:40.155Z,101737.91
2023-12-04T02:00:12.972Z,101747.25
2023-12-04T02:02:41.407Z,101739.59
2023-12-04T02:05:10.592Z,101733.16
2023-12-04T02:07:39.050Z,101732.13
2023-12-04T02:10:08.022Z,101722.81
2023-12-04T02:12:36.384Z,101726.44
2023-12-04T02:15:04.614Z,101729.25
2023-12-04T02:17:35.194Z,101725.81
2023-12-04T02:20:06.486Z,101724.84
2023-12-04T02:22:34.508Z,101713.09
2023-12-04T02:25:04.124Z,101704.84
2023-12-04T02:27:38.975Z,101709.28
2023-12-04T02:30:08.953Z,101694.81
2023-12-04T02:32:40.003Z,101694.28
2023-12-04T02:35:09.109Z,101698.75
2023-12-04T02:37:37.394Z,101686.41
2023-12-04T02:40:08.567Z,101695.25
2023-12-04T02:42:36.654Z,101693.72
2023-12-04T02:45:05.357Z,101692.41
2023-12-04T02:47:33.489Z,101680.41
2023-12-04T02:50:01.618Z,101685.50
2023-12-04T02:52:29.629Z,101685.44
2023-12-04T02:54:57.642Z,101677.97
2023-12-04T02:57:27.131Z,101679.31
2023-12-04T02:59:55.564Z,101673.19
2023-12-04T03:02:23.613Z,101671.50
2023-12-04T03:04:51.644Z,101668.94
2023-12-04T03:07:21.256Z,101657.31
2023-12-04T03:09:50.036Z,101651.06
2023-12-04T03:12:18.288Z,101647.50
2023-12-04T03:14:47.739Z,101642.63
2023-12-04T03:17:15.799Z,101643.91
2023-12-04T03:19:43.930Z,101637.88
2023-12-04T03:22:12.016Z,101633.78
2023-12-04T03:24:40.075Z,101645.50
2023-12-04T03:27:08.107Z,101636.03
2023-12-04T03:29:36.111Z,101632.22
2023-12-04T03:32:06.174Z,101626.28
2023-12-04T03:34:34.239Z,101625.09
2023-12-04T03:37:02.372Z,101620.72
2023-12-04T03:39:30.414Z,101620.72
2023-12-04T03:41:58.561Z,101621.66
2023-12-04T03:44:27.800Z,101618.19
2023-12-04T03:46:56.081Z,101608.03
2023-12-04T03:49:25.508Z,101608.34
2023-12-04T03:51:53.632Z,101595.53
2023-12-04T03:54:21.834Z,101587.94
2023-12-04T03:56:49.865Z,101586.50
2023-12-04T03:59:17.921Z,101586.84
2023-12-04T04:01:45.998Z,101578.31
2023-12-04T04:04:14.247Z,101579.31
2023-12-04T04:06:43.731Z,101579.22
2023-12-04T04:09:11.812Z,101571.63
2023-12-04T04:11:39.826Z,101572.03
2023-12-04T04:14:07.868Z,101572.50
2023-12-04T04:16:35.937Z,101560.25
2023-12-04T04:19:04.456Z,101560.88
2023-12-04T04:21:32.562Z,101561.69
2023-12-04T04:24:02.092Z,101559.56
2023-12-04T04:26:30.430Z,101564.34
2023-12-04T04:28:58.444Z,101561.19
2023-12-04T04:31:27.021Z,101554.47
2023-12-04T04:33:55.135Z,101552.50
2023-12-04T04:36:23.261Z,101548.09
2023-12-04T04:38:51.268Z,101541.81
2023-12-04T04:41:20.739Z,101547.09
2023-12-04T04:43:48.813Z,101538.69
2023-12-04T04:46:16.888Z,101545.66
2023-12-04T04:48:45.049Z,101532.69
2023-12-04T04:51:13.103Z,101527.59
2023-12-04T04:53:41.206Z,101530.97
2023-12-04T04:56:11.627Z,101525.97
2023-12-04T04:58:41.083Z,101530.47
2023-12-04T05:01:10.163Z,101525.47
2023-12-04T05:03:38.315Z,101521.72
2023-12-04T05:06:07.071Z,101522.22
2023-12-04T05:08:35.107Z,101516.09
2023-12-04T05:11:03.150Z,101512.91
2023-12-04T05:13:31.168Z,101522.66
2023-12-04T05:16:00.661Z,101506.56
2023-12-04T05:18:28.776Z,101508.97
2023-12-04T05:20:56.839Z,101509.44
2023-12-04T05:23:24.887Z,101499.97
2023-12-04T05:25:53.471Z,101501.44
2023-12-04T05:28:21.538Z,101495.88
2023-12-04T05:30:49.699Z,101497.63
2023-12-04T05:33:19.310Z,101490.59
2023-12-04T05:35:48.450Z,101493.09
2023-12-04T05:38:16.703Z,101486.13
2023-12-04T05:40:44.873Z,101478.69
2023-12-04T05:43:13.032Z,101471.88
2023-12-04T05:45:41.417Z,101477.13
2023-12-04T05:48:09.714Z,101467.13
2023-12-04T05:50:39.134Z,101470.06
2023-12-04T05:53:08.573Z,101460.91
2023-12-04T05:55:36.590Z,101460.34
2023-12-04T05:58:04.643Z,101458.00
2023-12-04T06:00:32.781Z,101455.38
2023-12-04T06:03:00.924Z,101453.94
2023-12-04T06:05:29.539Z,101450.03
2023-12-04T06:07:59.316Z,101443.00
2023-12-04T06:10:27.364Z,101444.19
2023-12-04T06:12:55.421Z,101444.06
2023-12-04T06:15:23.453Z,101440.06
2023-12-04T06:17:51.501Z,101442.41
2023-12-04T06:20:19.626Z,101433.31
2023-12-04T06:22:48.138Z,101436.78
2023-12-04T06:25:19.391Z,101437.75
2023-12-04T06:27:48.037Z,101442.44
2023-12-04T06:30:17.051Z,101443.81
2023-12-04T06:32:45.820Z,101438.34
2023-12-04T06:35:19.293Z,101434.63
2023-12-04T06:37:50.329Z,101432.75
2023-12-04T06:40:21.092Z,101438.13
2023-12-04T06:42:49.820Z,101435.75
2023-12-04T06:45:18.896Z,101428.69
2023-12-04T06:47:48.408Z,101441.34
2023-12-04T06:50:16.611Z,101431.94
2023-12-04T06:52:44.674Z,101442.97
2023-12-04T06:55:14.381Z,101432.81
2023-12-04T06:57:43.920Z,101440.81
2023-12-04T07:00:21.351Z,101434.38
2023-12-04T07:02:51.104Z,101434.47
2023-12-04T07:05:19.879Z,101428.31
2023-12-04T07:07:47.992Z,101432.78
2023-12-04T07:10:17.145Z,101438.00
2023-12-04T07:12:47.131Z,101429.44
2023-12-04T07:15:15.465Z,101430.50
2023-12-04T07:17:43.592Z,101421.28
2023-12-04T07:20:13.337Z,101426.41
2023-12-04T07:22:41.493Z,101424.84
2023-12-04T07:25:10.521Z,101424.38
2023-12-04T07:27:38.821Z,101429.31
2023-12-04T07:30:09.711Z,101430.81
2023-12-04T07:32:37.752Z,101426.78
2023-12-04T07:35:07.551Z,101428.13
2023-12-04T07:37:35.731Z,101430.81
2023-12-04T07:40:04.848Z,101428.19
2023-12-04T07:42:32.967Z,101427.06
2023-12-04T07:45:01.474Z,101435.00
2023-12-04T07:47:30.938Z,101425.78
2023-12-04T07:50:01.276Z,101436.19
2023-12-04T07:52:29.499Z,101425.56
2023-12-04T07:54:58.137Z,101426.63
2023-12-04T07:57:26.169Z,101426.69
2023-12-04T07:59:54.354Z,101419.22
2023-12-04T08:02:22.403Z,101426.19
2023-12-04T08:04:51.834Z,101427.38
2023-12-04T08:07:20.037Z,101420.31
2023-12-04T08:09:48.187Z,101409.47
2023-12-04T08:12:16.204Z,101408.25
2023-12-04T08:14:44.298Z,101411.34
2023-12-04T08:17:12.337Z,101401.50
2023-12-04T08:19:41.007Z,101403.22
2023-12-04T08:22:10.573Z,101397.00
2023-12-04T08:24:38.612Z,101400.13
2023-12-04T08:27:07.105Z,101407.84
2023-12-04T08:29:35.795Z,101413.47
2023-12-04T08:32:03.840Z,101400.47
2023-12-04T08:34:32.522Z,101395.53
2023-12-04T08:37:01.169Z,101396.25
2023-12-04T08:39:30.641Z,101404.94
2023-12-04T08:42:03.308Z,101384.75
2023-12-04T08:44:32.501Z,101401.19
2023-12-04T08:47:02.017Z,101387.34
2023-12-04T08:49:35.948Z,101390.94
2023-12-04T08:52:10.845Z,101384.25
2023-12-04T08:54:43.245Z,101392.34
2023-12-04T08:57:11.782Z,101386.19
2023-12-04T08:59:39.845Z,101380.88
2023-12-04T09:02:10.538Z,101388.91
2023-12-04T09:04:39.859Z,101382.09
2023-12-04T09:09:39.142Z,101381.25
2023-12-04T09:12:10.183Z,101376.59
2023-12-04T09:14:38.413Z,101379.34
2023-12-04T09:17:07.017Z,101375.94
2023-12-04T09:19:35.240Z,101378.66
2023-12-04T09:22:12.370Z,101376.81
2023-12-04T09:24:46.155Z,101373.22
2023-12-04T09:27:15.733Z,101382.84
2023-12-04T09:29:44.045Z,101367.72
2023-12-04T09:32:12.333Z,101377.00
2023-12-04T09:34:40.426Z,101374.78
2023-12-04T09:37:11.468Z,101371.00
2023-12-04T09:39:41.625Z,101380.09
2023-12-04T09:42:10.550Z,101378.53
2023-12-04T09:44:41.645Z,101370.47
2023-12-04T09:47:10.429Z,101378.72
2023-12-04T09:49:38.821Z,101378.72
2023-12-04T09:52:08.452Z,101373.91
2023-12-04T09:54:38.026Z,101380.09
2023-12-04T09:57:06.604Z,101377.34
2023-12-04T09:59:36.815Z,101376.84
2023-12-04T10:02:07.516Z,101362.59
2023-12-04T10:04:36.214Z,101362.22
2023-12-04T10:07:05.351Z,101352.25
2023-12-04T10:09:33.492Z,101346.94
2023-12-04T10:12:02.118Z,101348.69
2023-12-04T10:14:31.342Z,101343.69
2023-12-04T10:17:00.449Z,101341.63
2023-12-04T10:19:31.555Z,101343.34
2023-12-04T10:22:01.490Z,101347.47
2023-12-04T10:24:31.440Z,101336.16
2023-12-04T10:27:00.157Z,101330.81
2023-12-04T10:29:31.442Z,101334.09
2023-12-04T10:32:03.850Z,101319.69
2023-12-04T10:34:35.342Z,101318.31
2023-12-04T10:37:06.079Z,101316.06
2023-12-04T10:39:36.303Z,101309.72
2023-12-04T10:42:05.237Z,101305.59
2023-12-04T10:44:34.236Z,101312.47
2023-12-04T10:47:03.571Z,101310.88
2023-12-04T10:49:33.178Z,101316.03
2023-12-04T10:52:02.484Z,101310.38
2023-12-04T10:54:30.755Z,101300.41
2023-12-04T10:57:05.036Z,101292.31
2023-12-04T10:59:35.374Z,101299.41
2023-12-04T11:02:04.976Z,101285.66
2023-12-04T11:04:36.138Z,101292.22
2023-12-04T11:07:06.612Z,101293.41
2023-12-04T11:09:37.843Z,101280.16
2023-12-04T11:12:11.683Z,101283.63
2023-12-04T11:14:45.376Z,101282.59
2023-12-04T11:17:16.196Z,101284.28
2023-12-04T11:19:52.556Z,101279.81
2023-12-04T11:22:22.702Z,101271.56
2023-12-04T11:24:50.908Z,101278.78
2023-12-04T11:27:19.550Z,101269.84
2023-12-04T11:29:47.834Z,101279.44
2023-12-04T11:32:17.596Z,101270.72
2023-12-04T11:34:53.176Z,101268.59
2023-12-04T11:37:22.416Z,101264.00
2023-12-04T11:39:51.630Z,101264.34
2023-12-04T11:42:21.933Z,101261.72
2023-12-04T11:44:51.202Z,101255.00
2023-12-04T11:47:19.397Z,101255.06
2023-12-04T11:49:47.535Z,101247.47
2023-12-04T11:52:17.000Z,101244.34
2023-12-04T11:55:05.044Z,101236.47
2023-12-04T11:57:36.732Z,101230.63
2023-12-04T12:00:18.388Z,101224.47
2023-12-04T12:03:15.321Z,101226.66
2023-12-04T12:05:42.311Z,101220.38
2023-12-04T12:08:12.264Z,101221.50
2023-12-04T12:10:40.319Z,101217.25
2023-12-04T12:13:08.403Z,101210.53
2023-12-04T12:15:36.689Z,101203.63
2023-12-04T12:18:05.919Z,101207.63
2023-12-04T12:20:34.599Z,101197.41
2023-12-04T12:23:02.619Z,101194.56
2023-12-04T12:25:32.045Z,101185.63
2023-12-04T12:28:00.238Z,101188.06
2023-12-04T12:30:28.428Z,101183.41
2023-12-04T12:32:56.476Z,101178.75
2023-12-04T12:35:25.787Z,101173.66
2023-12-04T12:37:56.160Z,101173.66
2023-12-04T12:40:24.476Z,101161.56
2023-12-04T12:42:54.084Z,101163.47
2023-12-04T12:45:22.638Z,101164.28
2023-12-04T12:47:51.258Z,101150.66
2023-12-04T12:50:19.477Z,101149.09
2023-12-04T12:52:47.687Z,101149.72
2023-12-04T12:55:25.326Z,101140.69
2023-12-04T12:57:55.046Z,101141.69
2023-12-04T13:00:23.841Z,101146.53
2023-12-04T13:02:55.260Z,101141.69
2023-12-04T13:05:23.459Z,101136.06
2023-12-04T13:07:51.582Z,101131.81
2023-12-04T13:10:19.686Z,101131.59
2023-12-04T13:12:47.725Z,101119.06
2023-12-04T13:15:17.160Z,101127.09
2023-12-04T13:17:45.214Z,101132.31
2023-12-04T13:20:15.064Z,101125.09
2023-12-04T13:22:43.255Z,101113.56
2023-12-04T13:25:11.437Z,101112.25
2023-12-04T13:27:40.601Z,101108.63
2023-12-04T13:30:09.526Z,101101.22
2023-12-04T13:32:39.498Z,101101.25
2023-12-04T13:35:09.081Z,101096.25
2023-12-04T13:37:39.639Z,101089.38
2023-12-04T13:40:09.529Z,101087.50
2023-12-04T13:42:55.705Z,101084.22
2023-12-04T13:45:24.563Z,101076.31
2023-12-04T13:47:54.455Z,101074.09
2023-12-04T13:50:23.148Z,101076.53
2023-12-04T13:52:56.860Z,101075.16
2023-12-04T13:55:38.066Z,101082.50
2023-12-04T13:58:18.601Z,101080.81
2023-12-04T14:00:46.662Z,101064.09
2023-12-04T14:03:16.371Z,101071.44
2023-12-04T14:05:44.720Z,101074.50
2023-12-04T14:08:13.012Z,101066.63
2023-12-04T14:10:41.214Z,101055.00
2023-12-04T14:13:09.318Z,101056.69
2023-12-04T14:15:37.370Z,101050.00
2023-12-04T14:18:05.674Z,101050.00
2023-12-04T14:20:35.188Z,101044.75
2023-12-04T14:23:03.243Z,101049.69
2023-12-04T14:25:32.348Z,101037.91
2023-12-04T14:28:00.459Z,101046.44
2023-12-04T14:30:29.023Z,101035.47
2023-12-04T14:32:57.218Z,101036.19
2023-12-04T14:35:25.310Z,101045.50
2023-12-04T14:37:54.738Z,101047.88
2023-12-04T14:40:22.843Z,101041.28
2023-12-04T14:42:50.859Z,101048.16
2023-12-04T14:45:18.893Z,101046.13
2023-12-04T14:47:49.502Z,101044.75
2023-12-04T14:50:18.198Z,101041.31
2023-12-04T14:52:50.821Z,101044.06
2023-12-04T14:55:37.977Z,101041.66
2023-12-04T14:58:19.894Z,101043.91
2023-12-04T15:01:21.730Z,101043.91
2023-12-04T15:04:12.517Z,101053.75
2023-12-04T15:07:03.714Z,101047.03
2023-12-04T15:09:51.171Z,101051.28
2023-12-04T15:12:29.126Z,101042.03
2023-12-04T15:15:01.901Z,101044.09
2023-12-04T15:17:35.031Z,101050.16
2023-12-04T15:20:19.975Z,101042.13
2023-12-04T15:22:49.152Z,101040.94
2023-12-04T15:25:16.276Z,101038.69
2023-12-04T15:27:46.609Z,101034.53
2023-12-04T15:30:14.049Z,101035.28
2023-12-04T15:32:42.251Z,101026.19
2023-12-04T15:35:13.701Z,101031.19
2023-12-04T15:37:41.509Z,101030.47
2023-12-04T15:40:12.698Z,101027.56
2023-12-04T15:42:39.956Z,101024.13
2023-12-04T15:45:10.411Z,101014.72
2023-12-04T15:47:38.661Z,101015.94
2023-12-04T15:50:08.702Z,101005.09
2023-12-04T15:52:41.041Z,101017.44
2023-12-04T15:55:11.870Z,101009.56
2023-12-04T15:57:39.091Z,101017.28
2023-12-04T16:00:11.273Z,101018.84
2023-12-04T16:02:39.395Z,101010.22
2023-12-04T16:05:09.195Z,101016.22
2023-12-04T16:07:37.338Z,101009.94
2023-12-04T16:10:07.779Z,101011.13
2023-12-04T16:12:36.364Z,101006.97
2023-12-04T16:15:05.575Z,101003.59
2023-12-04T16:17:35.297Z,100995.84
2023-12-04T16:20:04.127Z,101014.22
2023-12-04T16:22:32.299Z,101013.34
2023-12-04T16:25:00.314Z,101007.88
2023-12-04T16:27:28.329Z,101004.09
2023-12-04T16:29:57.135Z,101008.88
2023-12-04T16:32:25.185Z,101003.44
2023-12-04T16:34:54.630Z,101003.75
2023-12-04T16:37:23.083Z,100996.75
2023-12-04T16:39:51.175Z,100991.97
2023-12-04T16:42:19.341Z,100996.34
2023-12-04T16:44:47.431Z,100993.16
2023-12-04T16:47:15.531Z,100994.19
2023-12-04T16:49:43.736Z,100994.69
2023-12-04T16:52:16.154Z,100992.59
2023-12-04T16:54:44.498Z,100995.53
2023-12-04T16:57:12.622Z,100985.19
2023-12-04T16:59:40.701Z,100984.88
2023-12-04T17:02:08.866Z,100983.44
2023-12-04T17:04:37.144Z,100975.94
2023-12-04T17:07:05.627Z,100987.28
2023-12-04T17:09:35.383Z,100981.16
2023-12-04T17:12:03.507Z,100975.69
2023-12-04T17:14:31.722Z,100964.97
2023-12-04T17:16:59.980Z,100975.91
2023-12-04T17:19:32.482Z,100963.97
2023-12-04T17:22:00.753Z,100954.38
2023-12-04T17:24:28.865Z,100959.03
2023-12-04T17:26:58.301Z,100957.47
2023-12-04T17:29:27.304Z,100959.56
2023-12-04T17:31:55.375Z,100954.34
2023-12-04T17:34:23.997Z,100959.56
2023-12-04T17:36:52.077Z,100956.69
2023-12-04T17:39:20.100Z,100956.34
2023-12-04T17:41:48.157Z,100955.28
2023-12-04T17:44:17.570Z,100949.59
2023-12-04T17:46:45.605Z,100957.84
2023-12-04T17:49:14.941Z,100955.59
2023-12-04T17:51:43.170Z,100955.22
2023-12-04T17:54:12.030Z,100957.63
2023-12-04T17:56:40.240Z,100961.69
2023-12-04T17:59:08.277Z,100950.22
2023-12-04T18:01:37.801Z,100952.34
2023-12-04T18:04:06.072Z,100945.09
2023-12-04T18:06:34.330Z,100944.41
2023-12-04T18:09:02.409Z,100941.06
2023-12-04T18:11:30.432Z,100942.47
2023-12-04T18:13:58.661Z,100942.56
2023-12-04T18:16:29.146Z,100935.88
2023-12-04T18:18:59.215Z,100927.41
2023-12-04T18:21:27.834Z,100930.78
2023-12-04T18:23:55.919Z,100925.13
2023-12-04T18:26:24.466Z,100929.28
2023-12-04T18:28:54.603Z,100927.34
2023-12-04T18:31:24.339Z,100929.28
2023-12-04T18:33:53.016Z,100928.78
2023-12-04T18:36:22.801Z,100923.19
2023-12-04T18:38:53.573Z,100919.16
2023-12-04T18:41:22.961Z,100926.41
2023-12-04T18:43:51.732Z,100916.13
2023-12-04T18:46:21.201Z,100924.03
2023-12-04T18:48:50.301Z,100915.44
2023-12-04T18:51:19.143Z,100924.31
2023-12-04T18:53:49.208Z,100918.31
2023-12-04T18:56:17.284Z,100914.06
2023-12-04T18:58:45.400Z,100913.44
2023-12-04T19:01:13.456Z,100907.34
2023-12-04T19:03:42.005Z,100902.06
2023-12-04T19:06:11.017Z,100900.91
2023-12-04T19:08:39.113Z,100898.59
2023-12-04T19:11:09.132Z,100897.63
2023-12-04T19:13:37.134Z,100902.38
2023-12-04T19:16:05.745Z,100906.91
2023-12-04T19:18:35.506Z,100902.41
2023-12-04T19:21:04.725Z,100904.16
2023-12-04T19:23:32.765Z,100902.38
2023-12-04T19:26:00.805Z,100900.09
2023-12-04T19:28:32.209Z,100899.97
2023-12-04T19:31:00.452Z,100897.56
2023-12-04T19:33:31.008Z,100892.13
2023-12-04T19:35:59.335Z,100893.63
2023-12-04T19:38:27.513Z,100895.19
2023-12-04T19:40:55.517Z,100890.38
2023-12-04T19:43:23.589Z,100893.78
2023-12-04T19:45:53.115Z,100892.63
2023-12-04T19:48:21.373Z,100886.63
2023-12-04T19:50:49.442Z,100876.63
2023-12-04T19:53:17.535Z,100880.53
2023-12-04T19:55:45.551Z,100876.06
2023-12-04T19:58:13.638Z,100861.97
2023-12-04T20:00:42.330Z,100858.22
2023-12-04T20:03:13.223Z,100867.44
2023-12-04T20:05:42.726Z,100872.25
2023-12-04T20:08:11.532Z,100876.66
2023-12-04T20:10:40.048Z,100884.06
2023-12-04T20:13:08.219Z,100873.34
2023-12-04T20:15:36.452Z,100874.00
2023-12-04T20:18:04.906Z,100872.41
2023-12-04T20:20:34.470Z,100871.25
2023-12-04T20:23:02.528Z,100867.69
2023-12-04T20:25:29.526Z,100860.69
2023-12-04T20:27:57.593Z,100860.19
2023-12-04T20:30:26.296Z,100862.44
2023-12-04T20:32:54.458Z,100857.94
2023-12-04T20:35:23.300Z,100855.41
2023-12-04T20:37:52.738Z,100854.19
2023-12-04T20:40:22.153Z,100853.56
2023-12-04T20:42:50.316Z,100856.56
2023-12-04T20:45:18.425Z,100850.44
2023-12-04T20:47:46.523Z,100850.44
2023-12-04T20:50:14.707Z,100850.72
2023-12-04T20:52:42.763Z,100848.34
2023-12-04T20:55:12.456Z,100845.34
2023-12-04T20:57:41.591Z,100849.75
2023-12-04T21:00:12.408Z,100848.34
2023-12-04T21:02:40.624Z,100839.56
2023-12-04T21:05:09.706Z,100837.78
2023-12-04T21:07:38.106Z,100830.25
2023-12-04T21:10:07.150Z,100814.78
2023-12-04T21:12:37.270Z,100821.69
2023-12-04T21:15:05.985Z,100823.03
2023-12-04T21:17:34.197Z,100818.66
2023-12-04T21:20:02.323Z,100816.84
2023-12-04T21:22:30.580Z,100817.19
2023-12-04T21:24:58.688Z,100812.06
2023-12-04T21:27:26.800Z,100818.53
2023-12-04T21:29:56.241Z,100817.53
2023-12-04T21:32:24.329Z,100817.06
2023-12-04T21:34:52.427Z,100824.84
2023-12-04T21:37:21.084Z,100833.31
2023-12-04T21:39:51.776Z,100825.75
2023-12-04T21:42:19.971Z,100820.22
2023-12-04T21:44:47.998Z,100819.16
2023-12-04T21:47:17.493Z,100810.88
2023-12-04T21:49:46.737Z,100808.97
2023-12-04T21:52:14.895Z,100807.66
2023-12-04T21:54:42.996Z,100808.19
2023-12-04T21:57:11.237Z,100799.50
2023-12-04T21:59:39.339Z,100796.75
2023-12-04T22:02:07.587Z,100787.97
2023-12-04T22:04:37.246Z,100785.13
2023-12-04T22:07:05.720Z,100786.72
2023-12-04T22:09:33.986Z,100776.44
2023-12-04T22:12:02.038Z,100779.44
2023-12-04T22:14:30.078Z,100777.56
2023-12-04T22:16:58.095Z,100773.47
2023-12-04T22:19:26.272Z,100770.56
2023-12-04T22:21:55.751Z,100774.34
2023-12-04T22:24:23.808Z,100772.63
2023-12-04T22:26:51.862Z,100766.03
2023-12-04T22:29:19.903Z,100766.03
2023-12-04T22:31:48.527Z,100770.38
2023-12-04T22:34:16.596Z,100781.19
2023-12-04T22:36:44.860Z,100782.09
2023-12-04T22:39:14.576Z,100787.69
2023-12-04T22:41:42.672Z,100783.41
2023-12-04T22:44:10.796Z,100778.72
2023-12-04T22:46:38.809Z,100776.63
2023-12-04T22:49:06.982Z,100775.81
2023-12-04T22:51:35.063Z,100768.63
2023-12-04T22:54:05.516Z,100773.47
2023-12-04T22:56:35.034Z,100769.28
2023-12-04T22:59:03.358Z,100767.09
2023-12-04T23:01:31.403Z,100774.72
2023-12-04T23:04:00.536Z,100773.13
2023-12-04T23:06:28.834Z,100774.09
2023-12-04T23:08:57.660Z,100769.88
2023-12-04T23:11:25.683Z,100771.22
2023-12-04T23:13:55.141Z,100762.59
2023-12-04T23:16:23.651Z,100779.69
2023-12-04T23:18:51.768Z,100764.75
2023-12-04T23:21:19.897Z,100762.91
2023-12-04T23:23:47.958Z,100758.97
2023-12-04T23:26:16.057Z,100760.97
2023-12-04T23:28:45.371Z,100753.75
2023-12-04T23:31:14.885Z,100754.59
2023-12-04T23:33:42.981Z,100747.94
2023-12-04T23:36:12.400Z,100745.03
2023-12-04T23:38:40.495Z,100741.78
2023-12-04T23:41:08.899Z,100741.78
2023-12-04T23:43:37.017Z,100739.69
2023-12-04T23:46:05.412Z,100741.16
2023-12-04T23:48:35.115Z,100733.97
2023-12-04T23:51:03.356Z,100721.22
2023-12-04T23:53:31.381Z,100728.38
2023-12-04T23:55:59.582Z,100721.88
2023-12-04T23:58:27.615Z,100715.91
